Time;durP1;ratioP1;P1;durP2;ratioP2;P2;SDS_P1;SDS_P2;PMS_P1;PMS_P2;Temp;Humidity;BMP_temperature;BMP_pressure;BME280_temperature;BME280_humidity;BME280_pressure;Samples;Min_cycle;Max_cycle;Signal;HPM_P1;HPM_P2
2022/01/28 00:00:32;;;;;;;6.53;4.93;;;;;;;;;;5054947;28;20423;-70
2022/01/28 00:03:07;;;;;;;8.93;5.27;;;;;;;;;;5072833;28;20462;-69
2022/01/28 00:05:34;;;;;;;7.43;4.87;;;;;;;;;;5072932;28;20899;-69
2022/01/28 00:08:00;;;;;;;7.43;4.70;;;;;;;;;;5072905;28;20410;-68
2022/01/28 00:10:28;;;;;;;8.70;4.77;;;;;;;;;;5072634;28;20846;-68
2022/01/28 00:13:15;;;;;;;7.90;5.40;;;;;;;;;;5072718;28;20449;-70
2022/01/28 00:40:27;;;;;;;6.70;4.30;;;;;;;;;;5076483;28;20433;-69
2022/01/28 00:42:53;;;;;;;5.70;4.10;;;;;;;;;;5076080;28;20392;-70
2022/01/28 00:45:19;;;;;;;5.90;4.30;;;;;;;;;;5076063;28;20405;-68
2022/01/28 00:47:47;;;;;;;5.87;4.40;;;;;;;;;;5076093;28;20441;-70
2022/01/28 00:50:13;;;;;;;7.17;3.90;;;;;;;;;;5076019;28;20500;-69
2022/01/28 00:52:39;;;;;;;7.03;4.77;;;;;;;;;;5075771;28;20770;-69
2022/01/28 00:55:05;;;;;;;5.03;4.17;;;;;;;;;;5075758;28;20910;-70
2022/01/28 00:57:31;;;;;;;5.13;3.60;;;;;;;;;;5075911;28;20460;-66
2022/01/28 00:59:58;;;;;;;5.37;3.70;;;;;;;;;;5075864;28;20399;-66
2022/01/28 01:02:24;;;;;;;4.90;3.87;;;;;;;;;;5075665;28;20549;-68
2022/01/28 01:04:50;;;;;;;6.10;4.60;;;;;;;;;;5075845;28;20444;-64
2022/01/28 01:07:16;;;;;;;4.80;3.87;;;;;;;;;;5075839;28;20833;-66
2022/01/28 01:09:42;;;;;;;5.13;4.10;;;;;;;;;;5057763;28;20775;-63
2022/01/28 01:12:10;;;;;;;5.60;4.00;;;;;;;;;;5075586;28;20905;-66
2022/01/28 01:14:36;;;;;;;6.77;4.27;;;;;;;;;;5075456;28;20776;-64
2022/01/28 01:19:33;;;;;;;7.67;4.10;;;;;;;;;;5075447;28;20429;-64
2022/01/28 01:22:00;;;;;;;6.70;4.03;;;;;;;;;;5075604;28;20398;-64
2022/01/28 01:24:34;;;;;;;4.77;4.00;;;;;;;;;;5075345;28;20405;-64
2022/01/28 01:27:00;;;;;;;5.23;4.17;;;;;;;;;;5075453;28;20456;-70
2022/01/28 01:29:27;;;;;;;7.50;4.80;;;;;;;;;;5074027;28;20459;-68
2022/01/28 01:32:01;;;;;;;7.30;4.63;;;;;;;;;;5075267;28;20411;-71
2022/01/28 01:34:27;;;;;;;5.93;3.30;;;;;;;;;;5075331;28;20432;-70
2022/01/28 01:36:53;;;;;;;5.67;4.40;;;;;;;;;;5075116;28;20548;-70
2022/01/28 01:39:26;;;;;;;13.00;4.17;;;;;;;;;;5075071;28;21003;-71
2022/01/28 01:42:24;;;;;;;7.00;4.80;;;;;;;;;;5075197;28;20919;-70
2022/01/28 01:52:28;;;;;;;5.50;4.23;;;;;;;;;;5074944;28;20398;-70
2022/01/28 01:54:54;;;;;;;6.23;4.50;;;;;;;;;;5074775;28;20405;-70
2022/01/28 01:57:20;;;;;;;10.10;4.60;;;;;;;;;;5056846;28;20462;-63
2022/01/28 01:59:48;;;;;;;7.37;4.30;;;;;;;;;;5074618;28;20393;-64
2022/01/28 02:02:14;;;;;;;8.57;4.43;;;;;;;;;;5074553;28;20454;-63
2022/01/28 02:04:40;;;;;;;4.03;3.40;;;;;;;;;;5074530;28;20405;-63
2022/01/28 02:07:07;;;;;;;10.90;4.50;;;;;;;;;;5074610;28;20448;-63
2022/01/28 02:09:33;;;;;;;7.70;4.77;;;;;;;;;;5074539;28;20489;-63
2022/01/28 02:11:59;;;;;;;6.63;5.07;;;;;;;;;;5056602;28;20900;-64
2022/01/28 02:14:25;;;;;;;5.70;4.40;;;;;;;;;;5074412;28;20405;-63
2022/01/28 02:16:51;;;;;;;6.60;4.47;;;;;;;;;;5074159;28;20435;-65
2022/01/28 02:19:17;;;;;;;4.60;3.80;;;;;;;;;;5074172;28;20525;-63
2022/01/28 02:21:47;;;;;;;6.43;4.00;;;;;;;;;;5074235;28;20483;-65
2022/01/28 02:24:16;;;;;;;5.77;4.00;;;;;;;;;;5074191;28;20449;-64
2022/01/28 02:26:42;;;;;;;8.73;4.37;;;;;;;;;;5074137;28;20749;-70
2022/01/28 02:29:13;;;;;;;5.80;3.80;;;;;;;;;;5074213;28;20411;-70
2022/01/28 02:31:39;;;;;;;5.87;3.97;;;;;;;;;;5074057;28;20405;-69
2022/01/28 02:34:09;;;;;;;6.23;4.03;;;;;;;;;;5074170;28;20402;-67
2022/01/28 02:36:42;;;;;;;5.37;3.87;;;;;;;;;;5055954;28;20449;-70
2022/01/28 02:39:10;;;;;;;5.17;4.00;;;;;;;;;;5055940;28;20994;-69
2022/01/28 02:41:40;;;;;;;6.00;4.30;;;;;;;;;;5055817;28;20788;-69
2022/01/28 02:44:55;;;;;;;7.03;4.60;;;;;;;;;;5073825;28;20480;-67
2022/01/28 02:47:00;;;;;;;4.83;3.60;;;;;;;;;;5055891;28;20513;-70
2022/01/28 02:49:29;;;;;;;6.23;4.73;;;;;;;;;;5055873;28;20416;-70
2022/01/28 02:51:57;;;;;;;5.23;3.93;;;;;;;;;;5073722;28;20395;-67
2022/01/28 02:54:23;;;;;;;4.47;3.90;;;;;;;;;;5073617;28;20440;-69
2022/01/28 02:56:52;;;;;;;7.20;4.13;;;;;;;;;;5073611;28;20402;-69
2022/01/28 02:59:19;;;;;;;7.80;3.83;;;;;;;;;;5073558;28;20523;-68
2022/01/28 03:01:45;;;;;;;5.10;3.80;;;;;;;;;;5073390;28;20504;-70
2022/01/28 03:04:23;;;;;;;5.40;4.10;;;;;;;;;;5073451;28;20966;-65
2022/01/28 03:06:49;;;;;;;4.47;3.60;;;;;;;;;;5073620;28;20401;-64
2022/01/28 03:09:19;;;;;;;7.90;3.30;;;;;;;;;;5073463;28;20401;-63
2022/01/28 03:11:58;;;;;;;7.20;3.67;;;;;;;;;;5073555;28;20394;-64
2022/01/28 03:14:37;;;;;;;5.17;3.73;;;;;;;;;;5073419;28;20400;-64
2022/01/28 03:19:42;;;;;;;6.30;3.83;;;;;;;;;;5073494;28;20410;-64
2022/01/28 03:22:08;;;;;;;4.70;3.70;;;;;;;;;;5073525;28;20744;-65
2022/01/28 03:24:34;;;;;;;7.53;3.87;;;;;;;;;;5073326;28;20431;-71
2022/01/28 03:27:07;;;;;;;5.47;3.73;;;;;;;;;;5073291;28;20480;-71
2022/01/28 03:29:33;;;;;;;5.43;4.30;;;;;;;;;;5073227;28;20485;-70
2022/01/28 03:31:59;;;;;;;5.43;3.50;;;;;;;;;;5073137;28;20482;-71
2022/01/28 03:34:25;;;;;;;10.47;4.40;;;;;;;;;;5073113;28;20456;-70
2022/01/28 03:36:52;;;;;;;6.80;4.10;;;;;;;;;;5073025;28;20402;-70
2022/01/28 03:39:18;;;;;;;7.43;4.60;;;;;;;;;;5073039;28;20464;-70
2022/01/28 03:41:44;;;;;;;5.60;4.20;;;;;;;;;;5073141;28;20906;-71
2022/01/28 03:44:10;;;;;;;6.70;4.03;;;;;;;;;;5073011;28;20409;-70
2022/01/28 03:46:36;;;;;;;6.90;4.63;;;;;;;;;;5055213;28;20491;-71
2022/01/28 03:49:03;;;;;;;5.80;4.00;;;;;;;;;;5072944;28;20416;-71
2022/01/28 03:51:29;;;;;;;4.67;3.90;;;;;;;;;;5073219;28;20409;-71
2022/01/28 03:53:56;;;;;;;10.13;4.80;;;;;;;;;;5077105;28;20489;-71
2022/01/28 03:56:22;;;;;;;7.03;4.23;;;;;;;;;;5077080;28;20402;-71
2022/01/28 03:58:48;;;;;;;7.17;4.40;;;;;;;;;;5076824;28;20477;-71
2022/01/28 04:01:18;;;;;;;5.77;4.17;;;;;;;;;;5076637;28;20464;-70
2022/01/28 04:04:03;;;;;;;4.73;3.80;;;;;;;;;;5077011;28;20410;-71
2022/01/28 04:12:03;;;;;;;7.17;4.53;;;;;;;;;;5029774;28;20441;-64
2022/01/28 04:14:41;;;;;;;6.40;4.10;;;;;;;;;;5076797;28;20400;-65
2022/01/28 04:17:23;;;;;;;6.90;3.70;;;;;;;;;;5076755;28;20433;-72
2022/01/28 04:19:50;;;;;;;8.30;4.20;;;;;;;;;;5058782;28;20498;-71
2022/01/28 04:22:16;;;;;;;6.97;4.20;;;;;;;;;;5076625;28;20864;-71
2022/01/28 04:24:42;;;;;;;5.90;3.90;;;;;;;;;;5076636;28;20433;-71
2022/01/28 04:27:08;;;;;;;9.60;4.80;;;;;;;;;;5076605;28;20405;-69
2022/01/28 04:29:34;;;;;;;8.00;4.77;;;;;;;;;;5058480;28;20479;-70
2022/01/28 04:32:00;;;;;;;6.40;4.83;;;;;;;;;;5058484;28;20908;-64
2022/01/28 04:34:27;;;;;;;7.50;4.67;;;;;;;;;;5058511;28;20450;-64
2022/01/28 04:39:54;;;;;;;5.57;3.80;;;;;;;;;;5076303;28;20421;-64
2022/01/28 05:06:32;;;;;;;9.60;4.40;;;;;;;;;;5075816;28;20405;-63
2022/01/28 05:26:27;;;;;;;8.33;4.87;;;;;;;;;;5075446;28;20439;-70
2022/01/28 05:28:53;;;;;;;6.07;4.50;;;;;;;;;;5075386;28;20405;-70
2022/01/28 05:31:20;;;;;;;6.70;4.90;;;;;;;;;;5075348;28;20801;-71
2022/01/28 05:33:47;;;;;;;7.30;4.87;;;;;;;;;;5075156;28;20416;-66
2022/01/28 05:36:13;;;;;;;6.17;4.60;;;;;;;;;;5075261;28;20404;-70
2022/01/28 05:38:40;;;;;;;8.40;4.80;;;;;;;;;;5074862;28;20465;-69
2022/01/28 05:41:06;;;;;;;6.90;4.10;;;;;;;;;;5075096;28;20406;-69
2022/01/28 05:43:32;;;;;;;8.13;5.00;;;;;;;;;;5075013;28;20415;-71
2022/01/28 05:45:58;;;;;;;8.10;4.57;;;;;;;;;;5075055;28;20417;-69
2022/01/28 05:48:24;;;;;;;6.40;5.10;;;;;;;;;;5074932;28;20779;-69
2022/01/28 05:50:50;;;;;;;10.13;5.23;;;;;;;;;;5074849;28;20397;-65
2022/01/28 05:53:16;;;;;;;7.90;5.33;;;;;;;;;;5074693;28;20422;-71
2022/01/28 05:55:42;;;;;;;7.33;4.43;;;;;;;;;;5074888;28;20460;-72
2022/01/28 05:58:08;;;;;;;10.40;4.97;;;;;;;;;;5074478;28;20979;-63
2022/01/28 06:00:34;;;;;;;7.83;4.87;;;;;;;;;;5074635;28;20751;-65
2022/01/28 06:03:00;;;;;;;9.43;4.13;;;;;;;;;;5074481;28;20946;-63
2022/01/28 06:05:30;;;;;;;6.37;4.90;;;;;;;;;;5074722;28;20409;-64
2022/01/28 06:07:56;;;;;;;8.13;5.50;;;;;;;;;;5074633;28;20492;-66
2022/01/28 06:10:22;;;;;;;9.88;5.00;;;;;;;;;;5074452;28;20434;-65
2022/01/28 06:12:48;;;;;;;7.70;5.03;;;;;;;;;;5074377;28;20630;-68
2022/01/28 06:15:15;;;;;;;10.50;5.40;;;;;;;;;;5073820;28;20409;-70
2022/01/28 06:17:41;;;;;;;10.00;5.57;;;;;;;;;;5074179;28;20472;-68
2022/01/28 06:20:08;;;;;;;10.40;5.53;;;;;;;;;;5074279;28;20409;-70
2022/01/28 06:22:41;;;;;;;6.40;4.30;;;;;;;;;;5074078;28;20408;-71
2022/01/28 06:25:08;;;;;;;6.50;3.93;;;;;;;;;;5074195;28;20455;-71
2022/01/28 06:27:34;;;;;;;9.53;5.50;;;;;;;;;;5074267;28;20907;-71
2022/01/28 06:30:00;;;;;;;6.97;4.37;;;;;;;;;;5074111;28;20492;-65
2022/01/28 06:32:26;;;;;;;6.90;4.80;;;;;;;;;;5074055;28;20414;-70
2022/01/28 06:34:52;;;;;;;10.43;6.03;;;;;;;;;;5073997;28;20414;-68
2022/01/28 06:37:18;;;;;;;7.73;5.37;;;;;;;;;;5073749;28;20792;-69
2022/01/28 06:39:44;;;;;;;10.27;5.40;;;;;;;;;;5073923;28;20431;-69
2022/01/28 06:42:10;;;;;;;8.60;5.57;;;;;;;;;;5073822;28;20438;-68
2022/01/28 06:44:36;;;;;;;9.33;5.67;;;;;;;;;;5073956;28;20405;-69
2022/01/28 06:47:02;;;;;;;14.03;5.33;;;;;;;;;;5055881;28;20418;-71
2022/01/28 06:49:28;;;;;;;9.73;5.90;;;;;;;;;;5073897;28;20454;-71
2022/01/28 06:51:54;;;;;;;9.00;5.60;;;;;;;;;;5073739;28;20437;-68
2022/01/28 06:54:20;;;;;;;9.20;5.10;;;;;;;;;;5055836;28;20973;-70
2022/01/28 06:56:46;;;;;;;9.57;5.33;;;;;;;;;;5073602;28;20415;-64
2022/01/28 06:59:12;;;;;;;8.23;5.13;;;;;;;;;;5073544;28;20470;-64
2022/01/28 07:01:38;;;;;;;7.23;5.37;;;;;;;;;;5073457;28;20952;-69
2022/01/28 07:04:04;;;;;;;12.63;6.20;;;;;;;;;;5073352;28;20963;-64
2022/01/28 07:06:30;;;;;;;13.87;6.33;;;;;;;;;;5073630;28;20410;-67
2022/01/28 07:08:56;;;;;;;9.43;5.07;;;;;;;;;;5073504;28;20969;-63
2022/01/28 07:11:22;;;;;;;9.43;6.10;;;;;;;;;;5073389;28;20600;-64
2022/01/28 07:13:48;;;;;;;7.33;4.87;;;;;;;;;;5073567;28;20418;-63
2022/01/28 07:16:14;;;;;;;6.43;5.10;;;;;;;;;;5073416;28;20470;-64
2022/01/28 07:18:40;;;;;;;8.90;4.60;;;;;;;;;;5073154;28;20302;-63
2022/01/28 07:21:06;;;;;;;5.90;4.27;;;;;;;;;;5073145;28;20497;-62
2022/01/28 07:23:32;;;;;;;6.03;3.93;;;;;;;;;;5055457;28;20768;-66
2022/01/28 07:25:58;;;;;;;7.23;4.80;;;;;;;;;;5073216;28;20428;-66
2022/01/28 07:28:26;;;;;;;8.10;4.45;;;;;;;;;;5073187;28;20497;-68
2022/01/28 07:30:52;;;;;;;14.73;5.33;;;;;;;;;;5073393;28;20505;-65
2022/01/28 07:33:18;;;;;;;9.00;5.50;;;;;;;;;;5073217;28;20762;-64
2022/01/28 07:35:44;;;;;;;8.33;5.30;;;;;;;;;;5055247;28;20220;-69
2022/01/28 07:38:10;;;;;;;11.83;5.43;;;;;;;;;;5055097;28;20477;-66
2022/01/28 07:40:36;;;;;;;13.83;5.80;;;;;;;;;;5055402;28;20467;-71
2022/01/28 07:43:02;;;;;;;8.67;4.87;;;;;;;;;;5055154;28;20435;-66
2022/01/28 07:45:28;;;;;;;10.60;5.13;;;;;;;;;;5055159;28;20404;-67
2022/01/28 07:47:54;;;;;;;11.03;4.83;;;;;;;;;;5073184;28;20712;-69
2022/01/28 07:50:20;;;;;;;9.37;5.13;;;;;;;;;;5073161;28;20409;-68
2022/01/28 07:52:47;;;;;;;12.43;6.17;;;;;;;;;;5073008;28;20417;-67
2022/01/28 07:55:14;;;;;;;8.90;4.50;;;;;;;;;;5072877;28;20412;-69
2022/01/28 07:57:41;;;;;;;9.20;5.17;;;;;;;;;;5072666;28;20947;-69
2022/01/28 08:00:08;;;;;;;13.73;5.30;;;;;;;;;;5055318;28;20430;-69
2022/01/28 08:02:34;;;;;;;6.90;5.00;;;;;;;;;;5079106;28;20458;-70
2022/01/28 08:05:00;;;;;;;8.53;4.97;;;;;;;;;;5093261;28;20511;-69
2022/01/28 08:07:26;;;;;;;8.07;4.47;;;;;;;;;;5093047;28;20416;-70
2022/01/28 08:09:52;;;;;;;7.00;3.77;;;;;;;;;;5093326;28;20416;-71
2022/01/28 08:12:18;;;;;;;8.40;4.30;;;;;;;;;;5093080;28;20416;-71
2022/01/28 08:14:45;;;;;;;8.07;4.30;;;;;;;;;;5092959;28;20408;-66
2022/01/28 08:17:11;;;;;;;8.23;5.27;;;;;;;;;;5092896;28;20417;-67
2022/01/28 08:19:38;;;;;;;8.37;4.33;;;;;;;;;;5091790;28;21005;-70
2022/01/28 08:22:04;;;;;;;5.90;4.20;;;;;;;;;;5093029;28;20403;-71
2022/01/28 08:24:30;;;;;;;8.83;5.10;;;;;;;;;;5092936;28;20898;-67
2022/01/28 08:26:56;;;;;;;5.03;3.67;;;;;;;;;;5092989;28;20397;-69
2022/01/28 08:29:23;;;;;;;11.13;4.50;;;;;;;;;;5091663;28;20409;-72
2022/01/28 08:31:49;;;;;;;10.37;5.07;;;;;;;;;;5092723;28;20407;-68
2022/01/28 08:34:15;;;;;;;6.90;4.50;;;;;;;;;;5092861;28;20466;-66
2022/01/28 08:36:41;;;;;;;7.03;4.27;;;;;;;;;;5092755;28;20404;-68
2022/01/28 08:39:09;;;;;;;11.60;5.07;;;;;;;;;;5095363;28;20990;-70
2022/01/28 08:41:38;;;;;;;9.47;4.70;;;;;;;;;;5096567;28;20412;-69
2022/01/28 08:44:05;;;;;;;7.50;4.60;;;;;;;;;;5096537;28;20412;-69
2022/01/28 08:46:31;;;;;;;7.60;4.07;;;;;;;;;;5096424;28;20405;-67
2022/01/28 08:48:57;;;;;;;9.50;4.20;;;;;;;;;;5096368;28;20475;-68
2022/01/28 08:51:23;;;;;;;8.80;4.33;;;;;;;;;;5096457;28;20475;-67
2022/01/28 08:53:49;;;;;;;10.03;4.40;;;;;;;;;;5096317;28;20462;-69
2022/01/28 08:56:15;;;;;;;8.10;4.77;;;;;;;;;;5096333;28;20498;-67
2022/01/28 08:58:41;;;;;;;7.93;4.00;;;;;;;;;;5096133;28;20468;-72
2022/01/28 09:01:07;;;;;;;4.20;3.80;;;;;;;;;;5094420;28;20472;-74
2022/01/28 09:03:33;;;;;;;6.63;3.93;;;;;;;;;;5058005;28;20425;-76
2022/01/28 09:05:59;;;;;;;4.60;3.80;;;;;;;;;;5075855;28;20888;-75
2022/01/28 09:08:25;;;;;;;7.27;4.30;;;;;;;;;;5057734;28;20409;-74
2022/01/28 09:11:00;;;;;;;8.70;4.00;;;;;;;;;;5057916;28;20418;-76
2022/01/28 09:13:30;;;;;;;5.17;3.80;;;;;;;;;;5075581;28;20460;-73
2022/01/28 09:15:57;;;;;;;4.93;3.50;;;;;;;;;;5075843;28;20542;-75
2022/01/28 09:18:24;;;;;;;4.13;3.40;;;;;;;;;;5075432;28;20460;-70
2022/01/28 09:20:51;;;;;;;6.93;4.10;;;;;;;;;;5075689;28;20433;-73
2022/01/28 09:23:17;;;;;;;6.30;3.83;;;;;;;;;;5075381;28;20406;-72
2022/01/28 09:25:43;;;;;;;4.53;4.07;;;;;;;;;;5075409;28;20394;-73
2022/01/28 09:28:09;;;;;;;5.47;3.67;;;;;;;;;;5075484;28;20732;-72
2022/01/28 09:30:35;;;;;;;5.73;3.50;;;;;;;;;;5075319;28;20760;-72
2022/01/28 09:33:02;;;;;;;7.13;3.67;;;;;;;;;;5075301;28;20915;-76
2022/01/28 09:35:28;;;;;;;6.03;3.33;;;;;;;;;;5075406;28;20430;-76
2022/01/28 09:37:54;;;;;;;5.80;3.07;;;;;;;;;;5074971;28;20993;-71
2022/01/28 09:40:21;;;;;;;5.10;3.23;;;;;;;;;;5057276;28;20418;-72
2022/01/28 09:42:48;;;;;;;6.90;3.23;;;;;;;;;;5075063;28;20907;-73
2022/01/28 09:45:16;;;;;;;3.30;2.87;;;;;;;;;;5057401;28;20756;-71
2022/01/28 09:47:42;;;;;;;8.20;3.27;;;;;;;;;;5075104;28;20440;-73
2022/01/28 09:50:08;;;;;;;6.50;3.17;;;;;;;;;;5074029;28;20414;-69
2022/01/28 09:52:35;;;;;;;5.27;2.90;;;;;;;;;;5074949;28;20412;-70
2022/01/28 09:55:01;;;;;;;5.70;2.77;;;;;;;;;;5074854;28;20476;-69
2022/01/28 09:57:27;;;;;;;4.47;3.17;;;;;;;;;;5074596;28;20508;-73
2022/01/28 09:59:53;;;;;;;3.77;2.87;;;;;;;;;;5074887;28;20537;-71
2022/01/28 10:02:19;;;;;;;10.53;2.43;;;;;;;;;;5074513;28;20440;-72
2022/01/28 10:04:46;;;;;;;7.07;2.90;;;;;;;;;;5074709;28;20422;-72
2022/01/28 10:07:16;;;;;;;3.30;2.30;;;;;;;;;;5074599;28;20392;-72
2022/01/28 10:09:58;;;;;;;2.97;2.20;;;;;;;;;;5074576;28;20401;-71
2022/01/28 10:12:34;;;;;;;5.83;2.10;;;;;;;;;;5074532;28;20748;-72
2022/01/28 10:15:15;;;;;;;4.23;1.80;;;;;;;;;;5074573;28;20404;-71
2022/01/28 10:18:00;;;;;;;6.60;2.37;;;;;;;;;;5056389;28;20448;-71
2022/01/28 10:20:26;;;;;;;6.33;2.03;;;;;;;;;;5074487;28;20417;-72
2022/01/28 10:22:57;;;;;;;2.50;1.83;;;;;;;;;;5074326;28;20443;-70
2022/01/28 10:25:36;;;;;;;4.50;2.30;;;;;;;;;;5056394;28;20402;-71
2022/01/28 10:28:02;;;;;;;6.47;2.17;;;;;;;;;;5074268;28;20481;-70
2022/01/28 10:30:28;;;;;;;4.60;2.17;;;;;;;;;;5074015;28;20397;-69
2022/01/28 10:33:14;;;;;;;5.17;1.70;;;;;;;;;;5073914;28;20458;-70
2022/01/28 10:35:48;;;;;;;5.87;2.00;;;;;;;;;;5074112;28;20441;-66
2022/01/28 10:38:27;;;;;;;5.30;2.37;;;;;;;;;;5073895;28;20466;-67
2022/01/28 10:41:08;;;;;;;2.60;1.87;;;;;;;;;;5074019;28;20452;-70
2022/01/28 10:43:41;;;;;;;3.60;1.90;;;;;;;;;;5073843;28;20463;-69
2022/01/28 10:46:07;;;;;;;5.07;2.20;;;;;;;;;;5073733;28;20461;-69
2022/01/28 10:48:33;;;;;;;6.50;2.20;;;;;;;;;;5073861;28;20422;-69
2022/01/28 10:51:00;;;;;;;4.37;2.07;;;;;;;;;;5073748;28;20409;-70
2022/01/28 10:53:27;;;;;;;4.57;1.97;;;;;;;;;;5073681;28;20415;-73
2022/01/28 10:55:57;;;;;;;3.20;1.73;;;;;;;;;;5073770;28;20409;-72
2022/01/28 10:58:27;;;;;;;8.37;2.60;;;;;;;;;;5055630;28;20496;-72
2022/01/28 11:00:54;;;;;;;2.23;1.87;;;;;;;;;;5073497;28;20411;-72
2022/01/28 11:03:26;;;;;;;10.50;2.30;;;;;;;;;;5093757;28;20412;-72
2022/01/28 11:05:54;;;;;;;7.27;2.67;;;;;;;;;;5093741;28;20445;-72
2022/01/28 11:08:20;;;;;;;2.47;1.60;;;;;;;;;;5093750;28;20487;-73
2022/01/28 11:10:46;;;;;;;7.27;2.33;;;;;;;;;;5093628;28;20409;-72
2022/01/28 11:13:12;;;;;;;9.40;2.30;;;;;;;;;;5093776;28;20402;-73
2022/01/28 11:15:38;;;;;;;5.23;2.30;;;;;;;;;;5093691;28;20961;-70
2022/01/28 11:18:06;;;;;;;4.27;1.70;;;;;;;;;;5093473;28;20981;-72
2022/01/28 11:20:37;;;;;;;4.57;2.13;;;;;;;;;;5093575;28;20768;-70
2022/01/28 11:23:23;;;;;;;4.80;2.10;;;;;;;;;;5093470;28;20840;-70
2022/01/28 11:26:02;;;;;;;8.83;2.73;;;;;;;;;;5093448;28;20498;-71
2022/01/28 11:28:40;;;;;;;7.63;2.40;;;;;;;;;;5093485;28;20910;-70
2022/01/28 11:31:06;;;;;;;4.20;2.00;;;;;;;;;;5093355;28;20421;-73
2022/01/28 11:33:45;;;;;;;4.77;2.20;;;;;;;;;;5093277;28;20393;-69
2022/01/28 11:36:11;;;;;;;3.73;2.13;;;;;;;;;;5093490;28;20491;-69
2022/01/28 11:38:40;;;;;;;5.30;2.47;;;;;;;;;;5093153;28;20901;-68
2022/01/28 11:41:07;;;;;;;5.27;2.50;;;;;;;;;;5093002;28;20405;-72
2022/01/28 11:43:34;;;;;;;6.63;1.93;;;;;;;;;;5093331;28;20401;-70
2022/01/28 11:46:06;;;;;;;4.60;2.63;;;;;;;;;;5093385;28;20417;-71
2022/01/28 11:48:51;;;;;;;3.47;2.00;;;;;;;;;;5093286;28;20417;-71
2022/01/28 11:51:18;;;;;;;4.27;2.27;;;;;;;;;;5093266;28;20418;-71
2022/01/28 11:53:54;;;;;;;6.20;2.23;;;;;;;;;;5093204;28;20401;-71
2022/01/28 11:56:27;;;;;;;3.97;2.03;;;;;;;;;;5093083;28;21083;-74
2022/01/28 11:58:53;;;;;;;9.03;2.90;;;;;;;;;;5092986;28;20460;-72
2022/01/28 12:01:43;;;;;;;4.93;2.90;;;;;;;;;;5089645;28;20455;-74
2022/01/28 12:04:29;;;;;;;3.37;2.13;;;;;;;;;;5027654;28;20418;-70
2022/01/28 12:06:55;;;;;;;5.70;3.07;;;;;;;;;;5054976;28;20406;-73
2022/01/28 12:09:22;;;;;;;12.07;2.30;;;;;;;;;;5072775;28;20417;-72
2022/01/28 12:11:49;;;;;;;4.03;2.10;;;;;;;;;;5072840;28;20459;-69
2022/01/28 12:14:15;;;;;;;10.90;2.50;;;;;;;;;;5075659;28;20462;-71
2022/01/28 12:16:45;;;;;;;6.10;2.27;;;;;;;;;;5076546;28;20923;-73
2022/01/28 12:19:18;;;;;;;2.73;1.93;;;;;;;;;;5076547;28;20787;-72
2022/01/28 12:22:03;;;;;;;4.20;2.10;;;;;;;;;;5058575;28;20864;-74
2022/01/28 12:24:33;;;;;;;3.20;2.30;;;;;;;;;;5076673;28;20407;-73
2022/01/28 12:27:06;;;;;;;3.17;2.10;;;;;;;;;;5058595;28;20424;-74
2022/01/28 12:29:36;;;;;;;4.73;2.33;;;;;;;;;;5058623;28;20898;-73
2022/01/28 12:32:03;;;;;;;6.40;2.13;;;;;;;;;;5076473;28;20393;-72
2022/01/28 12:34:29;;;;;;;10.03;2.40;;;;;;;;;;5058532;28;20938;-73
2022/01/28 12:36:58;;;;;;;9.40;2.83;;;;;;;;;;5076264;28;20496;-73
2022/01/28 12:39:44;;;;;;;5.37;2.30;;;;;;;;;;5076223;28;20457;-75
2022/01/28 12:42:23;;;;;;;7.33;2.87;;;;;;;;;;5076347;28;20419;-73
2022/01/28 12:44:53;;;;;;;6.20;3.03;;;;;;;;;;5076321;28;20438;-72
2022/01/28 12:47:19;;;;;;;7.23;3.73;;;;;;;;;;5076157;28;20413;-72
2022/01/28 12:49:46;;;;;;;5.93;2.40;;;;;;;;;;5076197;28;20462;-73
2022/01/28 12:52:12;;;;;;;4.30;3.17;;;;;;;;;;5076120;28;20915;-73
2022/01/28 12:54:40;;;;;;;6.93;2.80;;;;;;;;;;5057940;28;20422;-73
2022/01/28 12:57:07;;;;;;;8.03;3.10;;;;;;;;;;5075908;28;20417;-73
2022/01/28 12:59:33;;;;;;;9.30;2.70;;;;;;;;;;5076045;28;20557;-73
2022/01/28 13:01:59;;;;;;;4.93;3.30;;;;;;;;;;5075663;28;20465;-75
2022/01/28 13:04:47;;;;;;;9.93;3.43;;;;;;;;;;5075986;28;20732;-75
2022/01/28 13:09:55;;;;;;;4.73;3.00;;;;;;;;;;5075977;28;20421;-76
2022/01/28 13:12:40;;;;;;;13.70;3.90;;;;;;;;;;5075449;28;20405;-75
2022/01/28 13:15:10;;;;;;;5.23;3.10;;;;;;;;;;5075730;28;20413;-75
2022/01/28 13:17:36;;;;;;;8.57;3.30;;;;;;;;;;5075551;28;20763;-74
2022/01/28 13:20:04;;;;;;;7.77;3.70;;;;;;;;;;5075797;28;20896;-74
2022/01/28 13:22:32;;;;;;;10.43;3.77;;;;;;;;;;5075532;28;20439;-75
2022/01/28 13:24:59;;;;;;;4.80;3.20;;;;;;;;;;5075402;28;20420;-73
2022/01/28 13:27:41;;;;;;;8.70;4.17;;;;;;;;;;5075335;28;21360;-69
2022/01/28 13:30:14;;;;;;;8.87;4.77;;;;;;;;;;5075306;28;20492;-69
2022/01/28 13:32:41;;;;;;;6.13;3.90;;;;;;;;;;5057413;28;20428;-69
2022/01/28 13:35:16;;;;;;;7.20;4.00;;;;;;;;;;5075371;28;20407;-68
2022/01/28 13:37:42;;;;;;;7.93;3.93;;;;;;;;;;5057189;28;20413;-70
2022/01/28 13:40:24;;;;;;;6.37;4.43;;;;;;;;;;5057284;28;20442;-69
2022/01/28 13:42:59;;;;;;;11.07;5.30;;;;;;;;;;5075213;28;20402;-73
2022/01/28 13:45:53;;;;;;;7.80;4.60;;;;;;;;;;5075218;28;20884;-72
2022/01/28 13:48:39;;;;;;;8.07;4.80;;;;;;;;;;5048162;28;20474;-72
2022/01/28 13:51:05;;;;;;;8.67;4.90;;;;;;;;;;5075040;28;20402;-70
2022/01/28 13:54:15;;;;;;;8.90;5.53;;;;;;;;;;5057102;28;20440;-73
2022/01/28 13:56:32;;;;;;;9.80;5.47;;;;;;;;;;5074768;28;20804;-74
2022/01/28 13:58:58;;;;;;;9.90;5.53;;;;;;;;;;5074678;28;20531;-71
2022/01/28 14:01:25;;;;;;;9.20;4.80;;;;;;;;;;5074467;28;20457;-70
2022/01/28 14:03:54;;;;;;;13.50;5.40;;;;;;;;;;5074861;28;20409;-69
2022/01/28 14:06:21;;;;;;;6.87;4.40;;;;;;;;;;5074841;28;20456;-72
2022/01/28 14:08:53;;;;;;;7.90;4.70;;;;;;;;;;5074681;28;20816;-71
2022/01/28 14:11:25;;;;;;;9.33;5.30;;;;;;;;;;5074533;28;20727;-72
2022/01/28 14:14:04;;;;;;;7.10;4.70;;;;;;;;;;5074610;28;20455;-69
2022/01/28 14:16:30;;;;;;;9.17;5.07;;;;;;;;;;5074464;28;20411;-69
2022/01/28 14:18:56;;;;;;;7.00;4.60;;;;;;;;;;5073925;28;20458;-69
2022/01/28 14:21:22;;;;;;;9.17;5.53;;;;;;;;;;5074286;28;20407;-71
2022/01/28 14:23:48;;;;;;;6.17;4.57;;;;;;;;;;5074372;28;20492;-68
2022/01/28 14:26:16;;;;;;;9.33;4.67;;;;;;;;;;5056290;28;20506;-73
2022/01/28 14:29:08;;;;;;;10.63;4.77;;;;;;;;;;5074148;28;20396;-68
2022/01/28 14:31:34;;;;;;;14.87;5.00;;;;;;;;;;5074024;28;20770;-67
2022/01/28 14:34:02;;;;;;;6.87;4.80;;;;;;;;;;5074229;28;20411;-68
2022/01/28 14:36:28;;;;;;;12.93;4.93;;;;;;;;;;5073592;28;20419;-73
2022/01/28 14:38:54;;;;;;;7.77;4.93;;;;;;;;;;5073889;28;20869;-69
2022/01/28 14:41:20;;;;;;;11.70;4.87;;;;;;;;;;5074062;28;20497;-71
2022/01/28 14:43:46;;;;;;;7.03;4.60;;;;;;;;;;5055988;28;20417;-70
2022/01/28 14:46:12;;;;;;;9.40;4.37;;;;;;;;;;5073797;28;20414;-73
2022/01/28 14:48:38;;;;;;;12.27;6.20;;;;;;;;;;5073847;28;20421;-73
2022/01/28 14:51:04;;;;;;;8.73;4.97;;;;;;;;;;5073862;28;20501;-68
2022/01/28 14:53:30;;;;;;;6.27;4.00;;;;;;;;;;5073721;28;20414;-70
2022/01/28 14:55:56;;;;;;;6.37;4.33;;;;;;;;;;5073669;28;20417;-71
2022/01/28 14:58:22;;;;;;;6.40;3.80;;;;;;;;;;5073700;28;20467;-70
2022/01/28 15:00:48;;;;;;;8.53;4.20;;;;;;;;;;5073582;28;20441;-69
2022/01/28 15:03:14;;;;;;;7.47;4.50;;;;;;;;;;5072654;28;20523;-68
2022/01/28 15:05:40;;;;;;;9.00;5.70;;;;;;;;;;5054931;28;20422;-68
2022/01/28 15:08:11;;;;;;;9.93;4.80;;;;;;;;;;5072778;28;20424;-68
2022/01/28 15:10:38;;;;;;;7.37;4.23;;;;;;;;;;5072786;28;20409;-68
2022/01/28 15:13:05;;;;;;;7.43;3.90;;;;;;;;;;5072681;28;20396;-69
2022/01/28 15:15:31;;;;;;;11.47;5.07;;;;;;;;;;5072735;28;20816;-70
2022/01/28 15:17:57;;;;;;;9.87;5.00;;;;;;;;;;5072456;28;20963;-68
2022/01/28 15:20:27;;;;;;;7.73;4.80;;;;;;;;;;5072553;28;20413;-72
2022/01/28 15:22:53;;;;;;;9.00;4.13;;;;;;;;;;5072679;28;20434;-68
2022/01/28 15:25:19;;;;;;;5.93;4.40;;;;;;;;;;5072667;28;20409;-68
2022/01/28 15:27:46;;;;;;;7.77;4.13;;;;;;;;;;5072609;28;20400;-69
2022/01/28 15:38:04;;;;;;;6.67;4.43;;;;;;;;;;5072188;28;20460;-70
2022/01/28 15:40:30;;;;;;;8.33;4.57;;;;;;;;;;5072254;28;20487;-70
2022/01/28 15:43:00;;;;;;;8.73;4.17;;;;;;;;;;5054209;28;20417;-71
2022/01/28 15:45:29;;;;;;;10.20;4.70;;;;;;;;;;5054310;28;20420;-72
2022/01/28 15:47:55;;;;;;;10.90;4.47;;;;;;;;;;5070998;28;20410;-69
2022/01/28 15:50:21;;;;;;;6.00;3.67;;;;;;;;;;5072263;28;20410;-69
2022/01/28 15:52:47;;;;;;;6.83;4.10;;;;;;;;;;5072106;28;20410;-68
2022/01/28 15:55:15;;;;;;;7.77;4.10;;;;;;;;;;5072070;28;20413;-70
2022/01/28 15:57:42;;;;;;;6.97;4.30;;;;;;;;;;5071979;28;20406;-68
2022/01/28 16:00:11;;;;;;;7.53;4.50;;;;;;;;;;5072027;28;20406;-68
2022/01/28 16:02:37;;;;;;;4.80;3.93;;;;;;;;;;5040027;28;1121143;-69
2022/01/28 16:05:04;;;;;;;8.23;4.70;;;;;;;;;;5093058;28;20490;-68
2022/01/28 16:07:30;;;;;;;8.27;4.20;;;;;;;;;;5093026;28;20900;-67
2022/01/28 16:10:05;;;;;;;11.00;4.97;;;;;;;;;;5093180;28;20391;-68
2022/01/28 16:15:07;;;;;;;10.13;5.33;;;;;;;;;;5093042;28;20416;-71
2022/01/28 16:17:39;;;;;;;11.97;5.83;;;;;;;;;;5092953;28;20396;-69
2022/01/28 16:20:06;;;;;;;10.40;5.00;;;;;;;;;;5092995;28;20955;-67
2022/01/28 16:22:32;;;;;;;10.67;5.17;;;;;;;;;;5092818;28;20763;-68
2022/01/28 16:24:58;;;;;;;11.07;5.10;;;;;;;;;;5092861;28;20413;-67
2022/01/28 16:27:24;;;;;;;8.53;5.00;;;;;;;;;;5091630;28;20903;-68
2022/01/28 16:29:51;;;;;;;8.03;5.60;;;;;;;;;;5092867;28;20416;-73